Time;durP1;ratioP1;P1;durP2;ratioP2;P2;SDS_P1;SDS_P2;PMS_P1;PMS_P2;Temp;Humidity;BMP_temperature;BMP_pressure;BME280_temperature;BME280_humidity;BME280_pressure;Samples;Min_cycle;Max_cycle;Signal;HPM_P1;HPM_P2
2021/09/18 00:00:14;;;;;;;;;;;26.20;99.90;;;;;;1794985;79;20514;-86
2021/09/18 00:02:44;;;;;;;;;;;26.20;99.90;;;;;;1793144;79;20209;-85
2021/09/18 00:05:14;;;;;;;;;;;26.20;99.90;;;;;;1799853;79;20179;-86
2021/09/18 00:07:46;;;;;;;;;;;26.20;99.90;;;;;;1794772;79;20578;-86
2021/09/18 00:10:15;;;;;;;;;;;26.20;99.90;;;;;;1798451;79;20189;-86
2021/09/18 00:12:45;;;;;;;;;;;26.30;99.90;;;;;;1791081;79;20186;-86
2021/09/18 00:15:14;;;;;;;;;;;26.30;99.90;;;;;;1791252;79;20290;-86
2021/09/18 00:17:44;;;;;;;;;;;26.30;99.90;;;;;;1814019;79;20232;-86
2021/09/18 00:23:23;;;;;;;;;;;26.20;99.90;;;;;;1797916;78;20184;-86
2021/09/18 00:25:53;;;;;;;;;;;26.30;99.90;;;;;;1817868;78;20181;-87
2021/09/18 00:28:23;;;;;;;;;;;26.30;99.90;;;;;;1861999;76;20286;-86
2021/09/18 00:30:53;;;;;;;;;;;26.30;99.90;;;;;;1851398;76;20250;-86
2021/09/18 00:33:23;;;;;;;;;;;26.30;99.90;;;;;;1862220;76;20635;-86
2021/09/18 00:35:52;;;;;;;;;;;26.40;99.90;;;;;;1847702;76;20187;-87
2021/09/18 00:38:22;;;;;;;;;;;26.40;99.90;;;;;;1810002;78;20199;-88
2021/09/18 00:40:52;;;;;;;;;;;26.40;99.90;;;;;;1857011;76;20242;-86
2021/09/18 00:43:22;;;;;;;;;;;26.40;99.90;;;;;;1859149;76;20198;-86
2021/09/18 00:45:51;;;;;;;;;;;26.40;99.90;;;;;;1847317;76;20129;-86
2021/09/18 00:48:21;;;;;;;;;;;26.50;99.90;;;;;;1847059;76;20298;-87
2021/09/18 00:50:51;;;;;;;;;;;26.50;99.90;;;;;;1854707;76;20129;-87
2021/09/18 00:53:20;;;;;;;;;;;26.50;99.90;;;;;;1848221;77;20188;-86
2021/09/18 00:55:53;;;;;;;;;;;26.60;99.90;;;;;;1825753;77;20190;-86
2021/09/18 00:58:27;;;;;;;;;;;26.50;99.90;;;;;;1787079;77;20249;-87
2021/09/18 01:00:57;;;;;;;;;;;26.50;99.90;;;;;;1790188;79;20209;-86
2021/09/18 01:03:29;;;;;;;;;;;26.60;99.90;;;;;;1810841;78;20208;-85
2021/09/18 01:05:59;;;;;;;;;;;26.60;99.90;;;;;;1803195;78;20188;-87
2021/09/18 01:08:30;;;;;;;;;;;26.60;99.90;;;;;;1807214;78;20213;-87
2021/09/18 01:11:00;;;;;;;;;;;26.70;99.90;;;;;;1832950;77;21007;-87
2021/09/18 01:13:30;;;;;;;;;;;26.70;99.90;;;;;;1841039;76;20246;-87
2021/09/18 01:16:00;;;;;;;;;;;26.70;99.90;;;;;;1839124;77;20131;-85
2021/09/18 01:18:31;;;;;;;;;;;26.70;99.90;;;;;;1865229;77;20411;-86
2021/09/18 01:21:02;;;;;;;;;;;26.80;99.90;;;;;;1841062;77;20133;-85
2021/09/18 01:26:25;;;;;;;;;;;26.70;99.90;;;;;;1717631;83;20688;-86
2021/09/18 01:28:55;;;;;;;;;;;26.80;99.90;;;;;;1735974;82;20198;-87
2021/09/18 01:31:25;;;;;;;;;;;26.80;99.90;;;;;;1740590;81;20274;-87
2021/09/18 01:43:01;;;;;;;;;;;26.90;99.90;;;;;;1717124;83;20240;-87
2021/09/18 01:45:34;;;;;;;;;;;26.90;99.90;;;;;;1717687;83;20554;-86
2021/09/18 01:48:03;;;;;;;;;;;26.90;99.90;;;;;;1715294;84;20188;-87
2021/09/18 01:50:35;;;;;;;;;;;26.90;99.90;;;;;;1716034;84;20352;-87
2021/09/18 01:53:05;;;;;;;;;;;27.00;99.90;;;;;;1716185;84;20176;-86
2021/09/18 01:55:35;;;;;;;;;;;27.00;99.90;;;;;;1725682;82;20270;-87
2021/09/18 01:58:09;;;;;;;;;;;27.00;99.90;;;;;;1717948;82;20361;-86
2021/09/18 02:00:39;;;;;;;;;;;27.10;99.90;;;;;;1739547;82;20378;-87
2021/09/18 02:03:15;;;;;;;;;;;27.10;99.90;;;;;;1768969;77;20141;-87
2021/09/18 02:05:47;;;;;;;;;;;27.20;99.90;;;;;;1860638;76;20208;-85
2021/09/18 02:08:16;;;;;;;;;;;27.20;99.90;;;;;;1853092;77;20129;-85
2021/09/18 02:10:51;;;;;;;;;;;27.20;99.90;;;;;;1865576;77;20164;-86
2021/09/18 02:19:24;;;;;;;;;;;27.30;99.90;;;;;;1865161;76;20176;-85
2021/09/18 02:21:55;;;;;;;;;;;27.40;99.90;;;;;;1865883;77;20290;-85
2021/09/18 02:24:26;;;;;;;;;;;27.40;99.90;;;;;;1865973;77;20215;-85
2021/09/18 02:33:18;;;;;;;;;;;27.50;99.90;;;;;;1736155;81;20443;-87
2021/09/18 02:35:48;;;;;;;;;;;27.50;99.90;;;;;;1724521;81;20239;-85
2021/09/18 02:38:18;;;;;;;;;;;27.50;99.90;;;;;;1724118;82;20207;-85
2021/09/18 02:40:52;;;;;;;;;;;27.50;99.90;;;;;;1716842;82;20558;-86
2021/09/18 02:43:19;;;;;;;;;;;27.60;99.90;;;;;;1721701;82;20615;-86
2021/09/18 02:45:49;;;;;;;;;;;27.60;99.90;;;;;;1725703;82;20399;-84
2021/09/18 02:54:03;;;;;;;;;;;27.70;99.90;;;;;;1733776;80;20188;-86
2021/09/18 02:56:32;;;;;;;;;;;27.80;99.90;;;;;;1757875;80;20274;-84
2021/09/18 03:04:57;;;;;;;;;;;27.80;99.90;;;;;;1787998;78;20230;-85
2021/09/18 03:07:28;;;;;;;;;;;27.80;99.90;;;;;;1844132;77;20400;-85
2021/09/18 03:09:58;;;;;;;;;;;27.80;99.90;;;;;;1854123;76;20158;-84
2021/09/18 03:12:28;;;;;;;;;;;27.80;99.90;;;;;;1865513;77;20230;-84
2021/09/18 03:15:04;;;;;;;;;;;27.90;99.90;;;;;;1854561;77;20164;-84
2021/09/18 03:17:34;;;;;;;;;;;28.00;99.90;;;;;;1857476;77;20243;-83
2021/09/18 03:20:05;;;;;;;;;;;28.10;99.90;;;;;;1837687;77;20181;-83
2021/09/18 03:22:34;;;;;;;;;;;28.20;99.90;;;;;;1862068;77;20196;-86
2021/09/18 03:25:06;;;;;;;;;;;28.30;99.90;;;;;;1861689;77;20296;-84
2021/09/18 03:33:56;;;;;;;;;;;28.60;99.90;;;;;;1847728;77;20452;-86
2021/09/18 03:36:28;;;;;;;;;;;28.70;99.90;;;;;;1843395;77;20226;-83
2021/09/18 03:38:58;;;;;;;;;;;28.70;99.90;;;;;;1833099;77;20246;-84
2021/09/18 03:41:31;;;;;;;;;;;28.70;99.90;;;;;;1845254;77;20173;-86
2021/09/18 03:44:01;;;;;;;;;;;28.80;99.90;;;;;;1837266;77;20191;-86
2021/09/18 03:46:31;;;;;;;;;;;28.80;99.90;;;;;;1841927;76;20211;-85
2021/09/18 04:00:58;;;;;;;;;;;29.10;99.90;;;;;;1871043;76;20171;-87
2021/09/18 04:09:49;;;;;;;;;;;29.40;99.90;;;;;;1856227;77;20187;-85
2021/09/18 04:12:39;;;;;;;;;;;29.40;99.90;;;;;;1856519;77;20191;-85
2021/09/18 04:15:13;;;;;;;;;;;29.40;99.90;;;;;;1856040;76;20170;-85
2021/09/18 04:17:43;;;;;;;;;;;29.50;99.90;;;;;;1873536;75;20168;-85
2021/09/18 04:20:14;;;;;;;;;;;29.70;99.90;;;;;;1877401;76;20163;-86
2021/09/18 04:22:56;;;;;;;;;;;29.70;99.90;;;;;;1868040;76;20134;-85
2021/09/18 04:29:09;;;;;;;;;;;30.10;99.90;;;;;;1782148;78;20328;-86
2021/09/18 04:40:03;;;;;;;;;;;30.80;99.90;;;;;;1776336;80;20188;-86
2021/09/18 04:42:39;;;;;;;;;;;30.90;99.80;;;;;;1780859;80;20254;-87
2021/09/18 04:48:06;;;;;;;;;;;31.20;99.90;;;;;;1786439;80;20229;-86
2021/09/18 04:59:48;;;;;;;;;;;31.40;99.40;;;;;;1663256;85;20614;-86
2021/09/18 05:02:20;;;;;;;;;;;31.50;99.20;;;;;;1677341;82;20294;-85
2021/09/18 05:04:50;;;;;;;;;;;31.50;97.20;;;;;;1737270;81;20207;-87
2021/09/18 05:10:18;;;;;;;;;;;31.60;97.90;;;;;;1720109;82;20491;-87
2021/09/18 05:12:49;;;;;;;;;;;31.70;98.30;;;;;;1744125;81;20286;-88
2021/09/18 05:15:38;;;;;;;;;;;31.70;98.70;;;;;;1741075;80;20190;-87
2021/09/18 05:18:08;;;;;;;;;;;31.80;96.50;;;;;;1747144;81;20310;-86
2021/09/18 05:20:37;;;;;;;;;;;31.90;97.40;;;;;;1751620;80;20575;-86
2021/09/18 05:23:07;;;;;;;;;;;31.90;96.20;;;;;;1754350;80;20584;-86
2021/09/18 05:25:37;;;;;;;;;;;31.90;96.70;;;;;;1740522;80;20217;-86
2021/09/18 05:28:07;;;;;;;;;;;32.10;98.00;;;;;;1796787;77;20213;-86
2021/09/18 05:30:37;;;;;;;;;;;32.10;97.30;;;;;;1842601;75;20154;-86
2021/09/18 05:33:06;;;;;;;;;;;32.20;97.90;;;;;;1862780;75;20260;-88
2021/09/18 05:35:36;;;;;;;;;;;32.30;98.60;;;;;;1859964;77;20181;-86
2021/09/18 05:38:24;;;;;;;;;;;32.30;96.80;;;;;;1766261;80;20133;-86
2021/09/18 05:40:59;;;;;;;;;;;32.30;96.20;;;;;;1788360;79;20176;-85
2021/09/18 05:43:38;;;;;;;;;;;32.50;96.80;;;;;;1789137;78;20126;-87
2021/09/18 05:49:00;;;;;;;;;;;32.50;95.20;;;;;;1758797;81;20408;-87
2021/09/18 05:54:50;;;;;;;;;;;32.60;94.50;;;;;;1705751;83;20189;-85
2021/09/18 05:57:24;;;;;;;;;;;32.70;94.50;;;;;;1701970;84;20225;-88
2021/09/18 06:05:54;;;;;;;;;;;32.30;92.40;;;;;;1620489;87;21083;-87
2021/09/18 06:11:45;;;;;;;;;;;32.10;94.90;;;;;;1619834;87;20180;-86
2021/09/18 06:17:28;;;;;;;;;;;32.10;95.40;;;;;;1657357;85;20149;-87
2021/09/18 06:19:57;;;;;;;;;;;32.00;94.30;;;;;;1636971;86;20198;-88
2021/09/18 06:22:27;;;;;;;;;;;32.10;94.90;;;;;;1655812;85;20312;-87
2021/09/18 06:24:57;;;;;;;;;;;32.20;93.50;;;;;;1650695;85;20472;-85
2021/09/18 06:27:27;;;;;;;;;;;32.30;93.70;;;;;;1686202;85;20624;-86
2021/09/18 06:29:57;;;;;;;;;;;32.40;94.40;;;;;;1657722;86;20308;-87
2021/09/18 06:35:27;;;;;;;;;;;32.20;94.00;;;;;;1657187;84;20498;-87
2021/09/18 06:37:55;;;;;;;;;;;32.10;94.40;;;;;;1665179;84;20255;-86
2021/09/18 06:40:25;;;;;;;;;;;32.00;93.40;;;;;;1785077;77;20218;-87
2021/09/18 06:42:55;;;;;;;;;;;32.00;94.50;;;;;;1834758;76;20200;-86
2021/09/18 06:45:25;;;;;;;;;;;32.10;94.40;;;;;;1849788;76;20187;-87
2021/09/18 06:47:56;;;;;;;;;;;32.20;94.00;;;;;;1856035;75;20296;-87
2021/09/18 06:50:37;;;;;;;;;;;;;;;;;;;;;
2021/09/18 06:53:10;;;;;;;;;;;32.30;94.50;;;;;;1864520;76;20122;-87
2021/09/18 06:58:39;;;;;;;;;;;32.40;92.80;;;;;;1821540;77;20564;-86
2021/09/18 07:04:28;;;;;;;;;;;32.40;93.90;;;;;;1855961;75;20176;-86
2021/09/18 07:07:11;;;;;;;;;;;;;;;;;;;;;
2021/09/18 07:09:59;;;;;;;;;;;;;;;;;;;;;
2021/09/18 07:12:40;;;;;;;;;;;32.50;93.80;;;;;;1825890;77;20255;-88
2021/09/18 07:15:24;;;;;;;;;;;32.40;92.20;;;;;;1898553;75;20225;-85
2021/09/18 07:17:58;;;;;;;;;;;32.40;91.30;;;;;;1917872;74;20247;-84
2021/09/18 07:20:37;;;;;;;;;;;32.40;92.70;;;;;;1900537;72;20474;-85
2021/09/18 07:23:07;;;;;;;;;;;32.40;93.10;;;;;;1889858;74;20399;-84
2021/09/18 07:32:03;;;;;;;;;;;32.20;92.30;;;;;;1900934;74;20124;-85
2021/09/18 07:37:28;;;;;;;;;;;32.10;91.60;;;;;;1821225;75;20466;-86
2021/09/18 07:40:07;;;;;;;;;;;32.10;93.00;;;;;;1867140;76;20143;-86
2021/09/18 07:42:37;;;;;;;;;;;32.00;93.10;;;;;;1880097;76;20542;-88
2021/09/18 07:45:08;;;;;;;;;;;31.90;93.20;;;;;;1879741;76;20529;-87
2021/09/18 07:47:38;;;;;;;;;;;32.00;90.30;;;;;;1885594;76;20219;-86
2021/09/18 07:50:09;;;;;;;;;;;31.90;91.10;;;;;;1872966;76;20185;-88
2021/09/18 07:52:53;;;;;;;;;;;32.00;92.00;;;;;;1885591;75;20120;-88
2021/09/18 07:55:26;;;;;;;;;;;32.00;93.60;;;;;;1871584;76;20213;-88
2021/09/18 07:57:56;;;;;;;;;;;32.10;93.40;;;;;;1861215;76;20236;-88
2021/09/18 08:00:36;;;;;;;;;;;32.10;92.90;;;;;;1871550;76;20655;-84
2021/09/18 08:03:21;;;;;;;;;;;32.10;92.40;;;;;;1876813;76;20219;-84
2021/09/18 08:06:41;;;;;;;;;;;32.20;91.70;;;;;;1870921;76;20179;-86
2021/09/18 08:08:41;;;;;;;;;;;32.20;92.60;;;;;;1851422;76;20155;-86
2021/09/18 08:11:35;;;;;;;;;;;32.30;92.30;;;;;;1767294;79;20169;-87
2021/09/18 08:23:18;;;;;;;;;;;32.10;91.00;;;;;;1815292;77;20214;-88
2021/09/18 08:25:49;;;;;;;;;;;32.10;92.00;;;;;;1819911;76;20144;-87
2021/09/18 08:34:14;;;;;;;;;;;32.10;92.00;;;;;;1843668;76;20192;-87
2021/09/18 08:36:44;;;;;;;;;;;32.10;92.20;;;;;;1820980;76;20548;-89
2021/09/18 08:42:13;;;;;;;;;;;32.10;93.20;;;;;;1777953;80;20194;-85
2021/09/18 08:44:43;;;;;;;;;;;32.00;92.90;;;;;;1791642;78;20390;-86
2021/09/18 08:47:15;;;;;;;;;;;32.00;93.50;;;;;;1787533;80;20139;-85
2021/09/18 08:49:47;;;;;;;;;;;31.90;93.30;;;;;;1848390;77;20175;-86
2021/09/18 09:00:48;;;;;;;;;;;31.60;93.10;;;;;;1851251;77;20195;-86
2021/09/18 09:03:20;;;;;;;;;;;31.50;93.20;;;;;;1847050;75;20268;-86
2021/09/18 09:05:50;;;;;;;;;;;31.50;93.40;;;;;;1849564;76;20217;-86
2021/09/18 09:08:21;;;;;;;;;;;31.50;93.50;;;;;;1851071;76;20198;-85
2021/09/18 09:10:53;;;;;;;;;;;31.40;93.50;;;;;;1849000;78;20170;-85
2021/09/18 09:13:25;;;;;;;;;;;31.40;93.20;;;;;;1853013;76;20192;-87
2021/09/18 09:15:55;;;;;;;;;;;31.40;93.20;;;;;;1852370;77;20230;-85
2021/09/18 09:18:28;;;;;;;;;;;31.40;93.90;;;;;;1856201;76;20576;-85
2021/09/18 09:21:00;;;;;;;;;;;31.40;94.10;;;;;;1836924;77;20137;-85
2021/09/18 09:23:30;;;;;;;;;;;31.30;93.60;;;;;;1843833;76;20277;-85
2021/09/18 09:26:00;;;;;;;;;;;31.30;93.80;;;;;;1838081;76;20191;-85
2021/09/18 09:28:29;;;;;;;;;;;31.30;93.90;;;;;;1861422;75;20220;-85
2021/09/18 09:31:01;;;;;;;;;;;31.30;93.10;;;;;;1852745;76;20124;-86
2021/09/18 09:33:31;;;;;;;;;;;31.30;93.70;;;;;;1850352;77;20174;-86
2021/09/18 09:36:02;;;;;;;;;;;31.30;93.20;;;;;;1852762;76;20197;-85
2021/09/18 09:41:31;;;;;;;;;;;31.30;91.60;;;;;;1865263;75;20163;-86
2021/09/18 09:44:02;;;;;;;;;;;31.30;91.10;;;;;;1846985;76;20203;-84
2021/09/18 09:46:32;;;;;;;;;;;31.30;92.40;;;;;;1880348;76;20242;-84
2021/09/18 09:52:19;;;;;;;;;;;31.20;91.30;;;;;;1905215;75;20139;-87
2021/09/18 09:54:49;;;;;;;;;;;31.30;92.80;;;;;;1906557;75;20209;-85
2021/09/18 10:00:14;;;;;;;;;;;31.20;93.60;;;;;;1828711;76;20554;-85
2021/09/18 10:05:54;;;;;;;;;;;31.20;94.00;;;;;;1844440;76;20205;-83
2021/09/18 10:08:26;;;;;;;;;;;31.20;93.60;;;;;;1861400;77;20501;-87
2021/09/18 10:11:00;;;;;;;;;;;31.10;93.90;;;;;;1857990;76;20522;-85
2021/09/18 10:13:31;;;;;;;;;;;31.10;93.10;;;;;;1860502;77;20242;-84
2021/09/18 10:16:01;;;;;;;;;;;31.10;92.00;;;;;;1860274;77;20209;-85
2021/09/18 10:18:33;;;;;;;;;;;31.00;92.20;;;;;;1860249;77;20530;-84
2021/09/18 10:23:32;;;;;;;;;;;30.90;91.90;;;;;;1858879;76;20389;-85
2021/09/18 10:34:26;;;;;;;;;;;30.90;92.40;;;;;;1730771;81;20544;-85
2021/09/18 10:36:56;;;;;;;;;;;30.90;92.10;;;;;;1711845;82;20255;-83
2021/09/18 10:42:25;;;;;;;;;;;30.90;93.20;;;;;;1735109;81;20195;-84
2021/09/18 10:44:55;;;;;;;;;;;30.80;93.50;;;;;;1829408;77;20258;-84
2021/09/18 10:47:25;;;;;;;;;;;30.80;93.40;;;;;;1822317;78;20301;-85
2021/09/18 10:56:14;;;;;;;;;;;30.70;93.80;;;;;;1819111;77;20215;-85
2021/09/18 10:58:45;;;;;;;;;;;30.70;93.80;;;;;;1819276;79;20189;-85
2021/09/18 11:01:16;;;;;;;;;;;30.70;93.90;;;;;;1809266;78;20137;-84
2021/09/18 11:06:44;;;;;;;;;;;30.60;93.80;;;;;;1886097;75;20260;-84
2021/09/18 11:09:13;;;;;;;;;;;30.50;94.30;;;;;;1907521;73;20173;-85
2021/09/18 11:11:46;;;;;;;;;;;30.50;94.50;;;;;;1906786;74;20186;-85
2021/09/18 11:14:19;;;;;;;;;;;30.40;94.30;;;;;;1908088;75;20123;-85
2021/09/18 11:16:52;;;;;;;;;;;30.40;94.50;;;;;;1847714;77;20244;-85
2021/09/18 11:19:22;;;;;;;;;;;30.40;94.80;;;;;;1848033;75;20209;-85
2021/09/18 11:21:52;;;;;;;;;;;30.40;94.60;;;;;;1906402;75;20224;-85
2021/09/18 11:24:23;;;;;;;;;;;30.30;94.70;;;;;;1906268;75;20158;-85
2021/09/18 11:33:01;;;;;;;;;;;30.40;95.00;;;;;;1882710;76;20215;-86
2021/09/18 11:35:31;;;;;;;;;;;30.30;94.80;;;;;;1891601;75;20213;-86
2021/09/18 11:38:04;;;;;;;;;;;30.30;95.20;;;;;;1898935;74;20185;-85
2021/09/18 11:40:36;;;;;;;;;;;30.30;95.40;;;;;;1919811;73;20243;-85
2021/09/18 11:43:06;;;;;;;;;;;30.30;95.50;;;;;;1897467;75;20256;-85
2021/09/18 11:45:39;;;;;;;;;;;30.30;95.60;;;;;;1862360;75;20186;-84
2021/09/18 11:48:08;;;;;;;;;;;30.30;95.50;;;;;;1847561;75;20386;-85
2021/09/18 11:50:45;;;;;;;;;;;30.30;95.80;;;;;;1871829;75;20499;-85
2021/09/18 11:53:19;;;;;;;;;;;30.20;96.00;;;;;;1846592;77;20238;-85
2021/09/18 11:55:50;;;;;;;;;;;30.20;96.30;;;;;;1867554;75;20195;-85
2021/09/18 11:58:19;;;;;;;;;;;30.10;96.30;;;;;;1856131;76;20194;-85
2021/09/18 12:00:50;;;;;;;;;;;30.10;96.30;;;;;;1862695;76;20452;-85
2021/09/18 12:03:21;;;;;;;;;;;30.10;96.30;;;;;;1846360;77;20222;-83
2021/09/18 12:05:52;;;;;;;;;;;30.10;96.30;;;;;;1852456;76;20204;-84
2021/09/18 12:08:23;;;;;;;;;;;30.10;96.70;;;;;;1853632;77;20157;-84
2021/09/18 12:10:54;;;;;;;;;;;30.10;96.50;;;;;;1856149;76;20426;-85
2021/09/18 12:13:24;;;;;;;;;;;30.00;96.40;;;;;;1849846;77;20215;-84
2021/09/18 12:18:56;;;;;;;;;;;30.00;96.30;;;;;;1848016;77;20183;-84
2021/09/18 12:24:22;;;;;;;;;;;30.00;96.40;;;;;;1818499;79;20180;-83
2021/09/18 12:26:51;;;;;;;;;;;29.90;96.50;;;;;;1827817;78;20523;-84
2021/09/18 12:29:27;;;;;;;;;;;29.90;96.60;;;;;;1841495;76;20205;-83
2021/09/18 12:31:55;;;;;;;;;;;29.90;96.50;;;;;;1865852;74;20178;-84
2021/09/18 12:34:29;;;;;;;;;;;29.90;96.50;;;;;;1896274;74;20233;-84
2021/09/18 12:39:55;;;;;;;;;;;29.80;96.70;;;;;;1805572;77;20271;-83
2021/09/18 12:45:15;;;;;;;;;;;29.80;96.90;;;;;;1885245;75;20256;-83
2021/09/18 12:47:45;;;;;;;;;;;29.70;97.00;;;;;;1876704;74;20128;-84
2021/09/18 12:53:19;;;;;;;;;;;29.70;97.10;;;;;;1809054;77;20183;-83
2021/09/18 12:55:50;;;;;;;;;;;29.70;97.20;;;;;;1794557;78;20835;-84
2021/09/18 13:01:34;;;;;;;;;;;29.60;97.20;;;;;;1774154;80;20519;-83
2021/09/18 13:07:10;;;;;;;;;;;29.60;97.30;;;;;;1760574;80;20343;-84
2021/09/18 13:09:46;;;;;;;;;;;29.50;97.40;;;;;;1763993;81;20208;-85
2021/09/18 13:15:07;;;;;;;;;;;29.50;97.50;;;;;;1761483;81;20149;-84
2021/09/18 13:17:37;;;;;;;;;;;29.50;97.60;;;;;;1765049;78;20478;-85
2021/09/18 13:20:08;;;;;;;;;;;29.50;97.60;;;;;;1765216;81;20331;-85
2021/09/18 13:22:39;;;;;;;;;;;29.40;97.70;;;;;;1754225;80;20186;-84
2021/09/18 13:25:10;;;;;;;;;;;29.40;97.80;;;;;;1737882;81;20209;-83
2021/09/18 13:27:43;;;;;;;;;;;29.40;97.90;;;;;;1736890;81;20221;-85
2021/09/18 13:30:13;;;;;;;;;;;29.40;97.90;;;;;;1762424;80;20244;-84
2021/09/18 13:32:43;;;;;;;;;;;29.40;98.00;;;;;;1812577;77;20236;-84
2021/09/18 13:35:15;;;;;;;;;;;29.40;98.10;;;;;;1860957;77;20274;-85
2021/09/18 13:37:45;;;;;;;;;;;29.40;98.10;;;;;;1860951;77;20267;-85
2021/09/18 13:40:14;;;;;;;;;;;29.30;98.40;;;;;;1831755;77;20451;-84
2021/09/18 13:42:44;;;;;;;;;;;29.30;98.70;;;;;;1828699;76;20261;-85
2021/09/18 13:45:14;;;;;;;;;;;29.20;98.60;;;;;;1882799;75;20157;-84
2021/09/18 13:47:43;;;;;;;;;;;29.20;98.70;;;;;;1906087;75;20221;-83
2021/09/18 13:50:15;;;;;;;;;;;29.20;98.60;;;;;;1905935;75;20602;-83
2021/09/18 13:52:45;;;;;;;;;;;29.20;98.60;;;;;;1906234;75;20166;-84
2021/09/18 13:55:16;;;;;;;;;;;29.20;98.60;;;;;;1902017;75;20163;-84
2021/09/18 13:57:50;;;;;;;;;;;29.20;98.60;;;;;;1905389;74;20217;-84
2021/09/18 14:00:23;;;;;;;;;;;29.20;98.70;;;;;;1905573;75;20232;-85
2021/09/18 14:02:54;;;;;;;;;;;29.20;98.80;;;;;;1905688;75;20381;-84
2021/09/18 14:05:26;;;;;;;;;;;29.20;98.80;;;;;;1905864;75;20241;-84
2021/09/18 14:07:56;;;;;;;;;;;29.20;98.90;;;;;;1906102;75;20158;-84
2021/09/18 14:10:26;;;;;;;;;;;29.20;98.90;;;;;;1905911;75;20213;-84
2021/09/18 14:12:56;;;;;;;;;;;29.20;98.90;;;;;;1906113;75;20184;-83
2021/09/18 14:15:26;;;;;;;;;;;29.20;99.00;;;;;;1905540;73;20237;-83
2021/09/18 14:17:56;;;;;;;;;;;29.20;99.10;;;;;;1905505;75;20170;-84
2021/09/18 14:20:27;;;;;;;;;;;29.10;99.30;;;;;;1905825;75;20198;-84
2021/09/18 14:22:56;;;;;;;;;;;29.10;99.30;;;;;;1900841;75;20171;-84
2021/09/18 14:25:27;;;;;;;;;;;29.10;99.50;;;;;;1905934;75;20218;-84
2021/09/18 14:30:50;;;;;;;;;;;29.00;99.60;;;;;;1851293;76;20548;-83
2021/09/18 14:36:31;;;;;;;;;;;29.00;99.70;;;;;;1849483;77;20546;-84
2021/09/18 14:39:03;;;;;;;;;;;29.00;99.80;;;;;;1851579;77;20207;-84
2021/09/18 14:41:31;;;;;;;;;;;29.00;99.90;;;;;;1837762;76;20137;-82
2021/09/18 14:44:01;;;;;;;;;;;28.90;99.90;;;;;;1820595;78;20261;-84
2021/09/18 14:46:31;;;;;;;;;;;28.90;99.80;;;;;;1839023;78;20150;-85
2021/09/18 14:49:01;;;;;;;;;;;29.00;99.80;;;;;;1839003;78;20178;-85
2021/09/18 14:51:31;;;;;;;;;;;28.90;99.80;;;;;;1845405;76;20157;-85
2021/09/18 14:54:00;;;;;;;;;;;28.90;99.70;;;;;;1861416;76;20200;-84
2021/09/18 14:56:30;;;;;;;;;;;29.00;99.80;;;;;;1862541;75;20240;-86
2021/09/18 15:01:58;;;;;;;;;;;28.90;99.90;;;;;;1872167;75;20273;-84
2021/09/18 15:04:31;;;;;;;;;;;29.00;99.90;;;;;;1819995;77;20213;-85
2021/09/18 15:09:59;;;;;;;;;;;28.90;99.90;;;;;;1869886;76;20286;-84
2021/09/18 15:12:29;;;;;;;;;;;28.80;99.90;;;;;;1851749;77;20210;-85
2021/09/18 15:15:06;;;;;;;;;;;28.80;99.90;;;;;;1875338;76;20190;-84
2021/09/18 15:20:32;;;;;;;;;;;28.80;99.90;;;;;;1856966;76;20223;-84
2021/09/18 15:23:05;;;;;;;;;;;28.80;99.90;;;;;;1858749;77;20174;-84
2021/09/18 15:25:35;;;;;;;;;;;28.80;99.90;;;;;;1854154;77;20225;-84
2021/09/18 15:28:04;;;;;;;;;;;28.80;99.90;;;;;;1861036;77;20185;-85
2021/09/18 15:30:34;;;;;;;;;;;28.80;99.90;;;;;;1850276;77;20181;-85
2021/09/18 15:33:03;;;;;;;;;;;28.80;99.90;;;;;;1854050;77;20432;-84
2021/09/18 15:35:33;;;;;;;;;;;28.80;99.90;;;;;;1851399;77;20134;-84
2021/09/18 15:40:45;;;;;;;;;;;28.80;99.90;;;;;;1785413;78;20139;-84
2021/09/18 15:43:15;;;;;;;;;;;28.70;99.90;;;;;;1792700;77;20206;-86
2021/09/18 15:45:47;;;;;;;;;;;28.60;99.90;;;;;;1850185;77;20131;-83
2021/09/18 15:48:17;;;;;;;;;;;28.60;99.90;;;;;;1862940;77;20138;-84
2021/09/18 15:50:47;;;;;;;;;;;28.60;99.90;;;;;;1863307;77;20199;-83
2021/09/18 15:53:17;;;;;;;;;;;28.60;99.90;;;;;;1826507;77;20404;-85
2021/09/18 16:01:55;;;;;;;;;;;28.50;99.90;;;;;;1817712;77;20219;-83
2021/09/18 16:04:25;;;;;;;;;;;28.50;99.90;;;;;;1830992;77;20163;-82
2021/09/18 16:06:55;;;;;;;;;;;28.50;99.90;;;;;;1819489;78;20339;-84
2021/09/18 16:09:27;;;;;;;;;;;28.50;99.90;;;;;;1828065;76;20221;-84
2021/09/18 16:11:57;;;;;;;;;;;28.50;99.90;;;;;;1828027;78;20130;-85
2021/09/18 16:17:36;;;;;;;;;;;28.50;99.90;;;;;;1780137;78;20276;-88
2021/09/18 16:20:07;;;;;;;;;;;28.40;99.90;;;;;;1863963;76;20169;-85
2021/09/18 16:22:37;;;;;;;;;;;28.50;99.90;;;;;;1903441;75;20189;-85
2021/09/18 16:25:08;;;;;;;;;;;28.40;99.90;;;;;;1900075;75;20272;-85
2021/09/18 16:27:39;;;;;;;;;;;28.40;99.90;;;;;;1906044;75;20244;-85
2021/09/18 16:33:01;;;;;;;;;;;28.40;99.90;;;;;;1864437;75;20162;-85
2021/09/18 16:35:31;;;;;;;;;;;28.40;99.90;;;;;;1864200;76;20267;-84
2021/09/18 16:38:01;;;;;;;;;;;28.40;99.90;;;;;;1864349;76;20238;-84
2021/09/18 16:40:31;;;;;;;;;;;28.40;99.90;;;;;;1862635;77;20286;-84
2021/09/18 16:43:00;;;;;;;;;;;28.40;99.90;;;;;;1863370;75;20187;-86
2021/09/18 16:45:30;;;;;;;;;;;28.30;99.90;;;;;;1864967;76;20211;-84
2021/09/18 16:48:03;;;;;;;;;;;28.30;99.90;;;;;;1864824;77;20396;-84
2021/09/18 16:50:33;;;;;;;;;;;28.30;99.90;;;;;;1864440;77;20211;-83
2021/09/18 16:53:02;;;;;;;;;;;28.30;99.90;;;;;;1864043;75;20206;-85
2021/09/18 16:55:33;;;;;;;;;;;28.30;99.90;;;;;;1866643;76;20473;-83
2021/09/18 16:58:03;;;;;;;;;;;28.40;99.90;;;;;;1864325;77;20211;-84
2021/09/18 17:00:33;;;;;;;;;;;28.40;99.90;;;;;;1864153;75;20171;-85
2021/09/18 17:03:04;;;;;;;;;;;28.40;99.90;;;;;;1862351;76;20163;-83
2021/09/18 17:05:34;;;;;;;;;;;28.30;99.90;;;;;;1864433;76;20179;-85
2021/09/18 17:08:05;;;;;;;;;;;28.30;99.90;;;;;;1864803;77;20474;-82
2021/09/18 17:10:35;;;;;;;;;;;28.20;99.90;;;;;;1889085;75;20202;-85
2021/09/18 17:13:05;;;;;;;;;;;28.20;99.90;;;;;;1904523;74;20203;-85
2021/09/18 17:15:35;;;;;;;;;;;28.20;99.90;;;;;;1913946;74;20238;-85
2021/09/18 17:18:04;;;;;;;;;;;28.20;99.90;;;;;;1886792;74;20220;-84
2021/09/18 17:20:34;;;;;;;;;;;28.20;99.90;;;;;;1907476;74;20132;-84
2021/09/18 17:23:04;;;;;;;;;;;28.10;99.90;;;;;;1907197;74;20178;-84
2021/09/18 17:25:35;;;;;;;;;;;28.10;99.90;;;;;;1903709;75;20163;-83
2021/09/18 17:28:05;;;;;;;;;;;28.10;99.90;;;;;;1905813;75;20235;-83
2021/09/18 17:30:37;;;;;;;;;;;28.00;99.90;;;;;;1896382;75;20162;-86
2021/09/18 17:33:06;;;;;;;;;;;28.00;99.90;;;;;;1905816;75;20204;-85
2021/09/18 17:35:36;;;;;;;;;;;28.00;99.90;;;;;;1906150;75;20129;-85
2021/09/18 17:38:06;;;;;;;;;;;28.00;99.90;;;;;;1906205;75;20158;-85
2021/09/18 17:40:35;;;;;;;;;;;28.00;99.90;;;;;;1905957;75;20189;-85
2021/09/18 17:43:07;;;;;;;;;;;28.00;99.90;;;;;;1902955;75;20147;-84
2021/09/18 17:45:36;;;;;;;;;;;28.00;99.90;;;;;;1905970;75;20138;-84
2021/09/18 17:48:06;;;;;;;;;;;28.00;99.90;;;;;;1906055;75;20438;-85
2021/09/18 17:50:37;;;;;;;;;;;27.90;99.90;;;;;;1905702;75;20590;-84
2021/09/18 17:53:07;;;;;;;;;;;27.90;99.90;;;;;;1902374;75;20166;-85
2021/09/18 17:55:36;;;;;;;;;;;27.90;99.90;;;;;;1893777;74;20159;-84
2021/09/18 17:58:06;;;;;;;;;;;27.90;99.90;;;;;;1911556;74;20753;-86
2021/09/18 18:00:36;;;;;;;;;;;27.90;99.90;;;;;;1905558;75;20197;-84
2021/09/18 18:03:06;;;;;;;;;;;27.90;99.90;;;;;;1902617;75;20233;-86
2021/09/18 18:08:41;;;;;;;;;;;27.80;99.90;;;;;;1864678;75;20497;-84
2021/09/18 18:11:10;;;;;;;;;;;27.80;99.90;;;;;;1875732;75;20319;-87
2021/09/18 18:13:40;;;;;;;;;;;27.70;99.90;;;;;;1875495;75;20493;-88
2021/09/18 18:16:10;;;;;;;;;;;27.70;99.90;;;;;;1874312;75;20272;-85
2021/09/18 18:18:39;;;;;;;;;;;27.70;99.90;;;;;;1865016;75;20163;-86
2021/09/18 18:21:09;;;;;;;;;;;27.70;99.90;;;;;;1881841;75;20247;-85
2021/09/18 18:23:39;;;;;;;;;;;27.70;99.90;;;;;;1865977;75;20198;-85
2021/09/18 18:26:10;;;;;;;;;;;27.70;99.90;;;;;;1873785;75;20218;-86
2021/09/18 18:28:41;;;;;;;;;;;27.70;99.90;;;;;;1868138;75;20514;-85
2021/09/18 18:34:16;;;;;;;;;;;27.60;99.90;;;;;;1830640;76;20257;-87
2021/09/18 18:36:45;;;;;;;;;;;27.60;99.90;;;;;;1849859;76;20170;-85
2021/09/18 18:39:15;;;;;;;;;;;27.60;99.90;;;;;;1841341;75;20543;-84
2021/09/18 18:41:45;;;;;;;;;;;27.60;99.90;;;;;;1851228;76;20162;-84
2021/09/18 18:44:15;;;;;;;;;;;27.60;99.90;;;;;;1870894;76;20613;-84
2021/09/18 18:46:45;;;;;;;;;;;27.60;99.90;;;;;;1869396;76;20189;-84
2021/09/18 18:49:15;;;;;;;;;;;27.60;99.90;;;;;;1809049;78;20186;-84
2021/09/18 18:51:45;;;;;;;;;;;27.60;99.90;;;;;;1809773;78;20259;-84
2021/09/18 18:54:15;;;;;;;;;;;27.50;99.90;;;;;;1797551;78;20230;-85
2021/09/18 18:56:44;;;;;;;;;;;27.50;99.90;;;;;;1811781;78;20223;-86
2021/09/18 18:59:18;;;;;;;;;;;27.50;99.90;;;;;;1779885;79;20227;-85